createdAt,value
2019-04-01T00:01:27.411Z,69.34
2019-04-01T00:03:54.740Z,66.99
2019-04-01T00:06:22.054Z,66.68
2019-04-01T00:08:49.444Z,65.89
2019-04-01T00:11:16.753Z,66.23
2019-04-01T00:13:44.055Z,69.62
2019-04-01T00:16:11.415Z,67.41
2019-04-01T00:18:38.761Z,67.25
2019-04-01T00:21:06.077Z,69.38
2019-04-01T00:23:33.480Z,68.92
2019-04-01T00:26:00.773Z,69.45
2019-04-01T00:28:28.096Z,69.33
2019-04-01T00:30:55.434Z,68.00
2019-04-01T00:33:22.754Z,68.10
2019-04-01T00:35:50.107Z,67.91
2019-04-01T00:38:17.397Z,67.76
2019-04-01T00:40:44.735Z,69.31
2019-04-01T00:43:17.104Z,69.06
2019-04-01T00:45:46.283Z,68.34
2019-04-01T00:48:13.658Z,67.93
2019-04-01T00:50:40.997Z,68.14
2019-04-01T00:53:08.298Z,68.06
2019-04-01T00:55:35.695Z,69.29
2019-04-01T00:58:03.015Z,68.93
2019-04-01T01:00:30.337Z,68.35
2019-04-01T01:02:57.695Z,68.43
2019-04-01T01:05:25.034Z,67.92
2019-04-01T01:07:52.389Z,66.42
2019-04-01T01:10:19.731Z,66.94
2019-04-01T01:12:47.035Z,67.96
2019-04-01T01:15:14.515Z,68.61
2019-04-01T01:17:41.834Z,69.24
2019-04-01T01:20:09.252Z,69.11
2019-04-01T01:22:36.595Z,68.88
2019-04-01T01:25:03.994Z,67.80
2019-04-01T01:27:31.378Z,70.49
2019-04-01T01:29:58.697Z,70.31
2019-04-01T01:32:26.015Z,68.78
2019-04-01T01:34:53.337Z,67.89
2019-04-01T01:37:20.635Z,68.39
2019-04-01T01:39:47.975Z,67.97
2019-04-01T01:42:15.297Z,67.77
2019-04-01T01:44:42.636Z,68.79
2019-04-01T01:47:10.015Z,68.53
2019-04-01T01:49:37.320Z,67.34
2019-04-01T01:52:04.635Z,68.22
2019-04-01T01:54:31.983Z,68.78
2019-04-01T01:56:59.311Z,69.55
2019-04-01T01:59:26.798Z,69.88
2019-04-01T02:01:54.115Z,69.43
2019-04-01T02:04:21.495Z,71.95
2019-04-01T02:06:48.874Z,72.96
2019-04-01T02:09:16.175Z,73.15
2019-04-01T02:11:43.517Z,72.89
2019-04-01T02:14:10.856Z,72.39
2019-04-01T02:16:38.235Z,74.42
2019-04-01T02:19:05.555Z,73.06
2019-04-01T02:21:32.877Z,72.06
2019-04-01T02:24:01.138Z,72.72
2019-04-01T02:26:28.496Z,73.71
2019-04-01T02:28:55.816Z,72.84
2019-04-01T02:31:23.223Z,71.64
2019-04-01T02:33:50.533Z,69.86
2019-04-01T02:36:17.871Z,68.93
2019-04-01T02:38:45.222Z,70.67
2019-04-01T02:41:12.529Z,70.91
2019-04-01T02:43:39.819Z,70.80
2019-04-01T02:46:07.198Z,74.01
2019-04-01T02:48:34.513Z,72.19
2019-04-01T02:51:01.827Z,70.46
2019-04-01T02:53:29.207Z,71.42
2019-04-01T02:55:56.539Z,70.80
2019-04-01T02:58:23.863Z,73.92
2019-04-01T03:00:51.217Z,73.51
2019-04-01T03:03:18.612Z,71.07
2019-04-01T03:05:45.971Z,75.15
2019-04-01T03:08:13.275Z,74.92
2019-04-01T03:10:40.636Z,73.75
2019-04-01T03:13:07.958Z,74.75
2019-04-01T03:15:35.349Z,75.11
2019-04-01T03:18:02.727Z,75.57
2019-04-01T03:20:30.038Z,75.16
2019-04-01T03:22:57.310Z,75.14
2019-04-01T03:25:24.674Z,76.52
2019-04-01T03:27:52.047Z,74.05
2019-04-01T03:30:19.416Z,74.84
2019-04-01T03:32:46.746Z,75.29
2019-04-01T03:35:14.036Z,73.82
2019-04-01T03:37:41.392Z,72.87
2019-04-01T03:40:08.855Z,72.07
2019-04-01T03:42:36.177Z,72.88
2019-04-01T03:45:03.819Z,72.45
2019-04-01T03:47:31.575Z,74.15
2019-04-01T03:49:58.895Z,74.59
2019-04-01T03:52:26.215Z,75.69
2019-04-01T03:54:53.579Z,74.26
2019-04-01T03:57:20.937Z,73.57
2019-04-01T03:59:48.222Z,73.40
2019-04-01T04:02:15.574Z,74.15
2019-04-01T04:04:42.920Z,73.57
2019-04-01T04:07:10.263Z,74.12
2019-04-01T04:09:37.618Z,75.35
2019-04-01T04:12:04.971Z,74.53
2019-04-01T04:14:32.315Z,74.57
2019-04-01T04:16:59.621Z,74.78
2019-04-01T04:19:27.047Z,75.48
2019-04-01T04:21:54.357Z,77.24
2019-04-01T04:24:21.847Z,77.15
2019-04-01T04:26:49.254Z,77.18
2019-04-01T04:29:16.597Z,75.03
2019-04-01T04:31:43.917Z,75.64
2019-04-01T04:34:11.379Z,73.73
2019-04-01T04:36:38.685Z,73.49
2019-04-01T04:39:06.058Z,74.84
2019-04-01T04:41:33.392Z,75.65
2019-04-01T04:44:00.751Z,76.13
2019-04-01T04:46:28.097Z,77.32
2019-04-01T04:48:55.405Z,76.82
2019-04-01T04:51:22.776Z,77.14
2019-04-01T04:53:50.075Z,77.11
2019-04-01T04:56:17.432Z,77.45
2019-04-01T04:58:44.851Z,78.70
2019-04-01T05:01:12.922Z,76.27
2019-04-01T05:03:40.242Z,75.37
2019-04-01T05:06:07.533Z,76.51
2019-04-01T05:08:34.873Z,76.84
2019-04-01T05:11:02.263Z,77.13
2019-04-01T05:13:29.587Z,77.32
2019-04-01T05:15:56.934Z,75.98
2019-04-01T05:18:24.255Z,77.31
2019-04-01T05:20:52.136Z,75.53
2019-04-01T05:23:19.912Z,76.16
2019-04-01T05:25:47.389Z,75.08
2019-04-01T05:28:16.107Z,74.18
2019-04-01T05:30:45.384Z,74.41
2019-04-01T05:33:13.818Z,74.36
2019-04-01T05:35:42.097Z,74.33
2019-04-01T05:38:09.449Z,76.01
2019-04-01T05:40:36.775Z,76.76
2019-04-01T05:43:04.325Z,77.78
2019-04-01T05:45:31.767Z,76.79
2019-04-01T05:47:59.137Z,75.37
2019-04-01T05:50:26.436Z,75.07
2019-04-01T05:52:53.734Z,74.48
2019-04-01T05:55:21.195Z,76.63
2019-04-01T05:57:49.011Z,76.32
2019-04-01T06:00:38.375Z,76.24
2019-04-01T06:03:05.691Z,77.01
2019-04-01T06:05:33.162Z,76.79
2019-04-01T06:08:00.594Z,77.84
2019-04-01T06:10:27.898Z,79.71
2019-04-01T06:12:55.416Z,79.47
2019-04-01T06:15:23.175Z,78.41
2019-04-01T06:17:50.591Z,75.82
2019-04-01T06:20:17.915Z,76.36
2019-04-01T06:22:45.225Z,76.95
2019-04-01T06:25:12.656Z,77.55
2019-04-01T06:27:40.295Z,77.34
2019-04-01T06:30:07.767Z,76.32
2019-04-01T06:32:35.098Z,78.86
2019-04-01T06:35:02.894Z,77.03
2019-04-01T06:37:30.374Z,77.13
2019-04-01T06:39:58.386Z,78.28
2019-04-01T06:42:25.913Z,76.80
2019-04-01T06:44:53.376Z,75.08
2019-04-01T06:47:20.700Z,75.84
2019-04-01T06:49:48.061Z,74.97
2019-04-01T06:52:15.366Z,76.37
2019-04-01T06:54:42.733Z,76.89
2019-04-01T06:57:10.060Z,75.43
2019-04-01T06:59:38.089Z,76.55
2019-04-01T07:02:05.494Z,76.28
2019-04-01T07:04:32.801Z,75.64
2019-04-01T07:07:00.142Z,76.77
2019-04-01T07:09:27.449Z,76.55
2019-04-01T07:11:54.760Z,76.08
2019-04-01T07:14:22.120Z,75.45
2019-04-01T07:16:49.466Z,75.98
2019-04-01T07:19:16.895Z,76.60
2019-04-01T07:21:44.257Z,75.80
2019-04-01T07:24:11.684Z,74.92
2019-04-01T07:26:39.034Z,75.02
2019-04-01T07:29:06.627Z,74.90
2019-04-01T07:31:36.373Z,74.64
2019-04-01T07:34:03.855Z,74.33
2019-04-01T07:36:31.233Z,74.15
2019-04-01T07:38:58.642Z,73.58
2019-04-01T07:41:26.175Z,73.73
2019-04-01T07:43:53.527Z,72.93
2019-04-01T07:46:20.875Z,73.73
2019-04-01T07:48:48.947Z,73.00
2019-04-01T07:51:16.275Z,71.51
2019-04-01T07:53:43.777Z,70.07
2019-04-01T07:56:11.217Z,71.61
2019-04-01T07:58:38.572Z,71.30
2019-04-01T08:01:06.103Z,71.90
2019-04-01T08:03:33.519Z,70.03
2019-04-01T08:06:00.881Z,69.08
2019-04-01T08:08:28.194Z,68.27
2019-04-01T08:10:55.512Z,67.40
2019-04-01T08:13:22.915Z,69.05
2019-04-01T08:15:50.247Z,69.24
2019-04-01T08:18:17.575Z,67.03
2019-04-01T08:20:44.904Z,67.27
2019-04-01T08:23:14.458Z,65.92
2019-04-01T08:25:41.770Z,66.89
2019-04-01T08:28:09.194Z,66.37
2019-04-01T08:30:36.547Z,65.52
2019-04-01T08:33:03.992Z,66.37
2019-04-01T08:35:31.439Z,64.36
2019-04-01T08:37:58.766Z,64.11
2019-04-01T08:40:30.395Z,64.10
2019-04-01T08:42:58.276Z,63.52
2019-04-01T08:45:25.591Z,64.75
2019-04-01T08:47:53.059Z,62.07
2019-04-01T08:50:21.315Z,60.99
2019-04-01T08:52:48.636Z,61.54
2019-04-01T08:55:16.096Z,60.24
2019-04-01T08:57:43.415Z,60.76
2019-04-01T09:00:11.075Z,61.98
2019-04-01T09:02:38.456Z,57.31
2019-04-01T09:05:05.877Z,56.52
2019-04-01T09:07:33.276Z,57.61
2019-04-01T09:10:01.154Z,57.14
2019-04-01T09:12:28.503Z,58.02
2019-04-01T09:14:56.110Z,56.09
2019-04-01T09:17:23.467Z,56.43
2019-04-01T09:19:51.684Z,55.63
2019-04-01T09:22:19.006Z,55.06
2019-04-01T09:24:46.386Z,55.92
2019-04-01T09:27:13.696Z,55.22
2019-04-01T09:29:41.070Z,54.64
2019-04-01T09:32:08.398Z,54.78
2019-04-01T09:34:35.715Z,51.75
2019-04-01T09:37:03.055Z,52.03
2019-04-01T09:39:30.377Z,53.48
2019-04-01T09:41:57.750Z,52.44
2019-04-01T09:44:36.115Z,52.34
2019-04-01T09:46:54.362Z,51.13
2019-04-01T09:49:21.681Z,51.42
2019-04-01T09:51:49.317Z,50.62
2019-04-01T09:54:16.930Z,50.31
2019-04-01T09:56:44.239Z,50.88
2019-04-01T09:59:11.575Z,51.85
2019-04-01T10:01:38.935Z,50.47
2019-04-01T10:04:06.311Z,49.88
2019-04-01T10:06:33.730Z,50.48
2019-04-01T10:09:01.095Z,49.97
2019-04-01T10:11:28.472Z,50.00
2019-04-01T10:13:55.795Z,49.57
2019-04-01T10:16:26.377Z,49.18
2019-04-01T10:18:52.343Z,49.06
2019-04-01T10:21:19.646Z,49.08
2019-04-01T10:23:47.015Z,47.88
2019-04-01T10:26:14.371Z,48.46
2019-04-01T10:28:41.691Z,48.02
2019-04-01T10:31:09.097Z,48.73
2019-04-01T10:33:36.412Z,48.87
2019-04-01T10:36:03.897Z,49.86
2019-04-01T10:38:31.257Z,48.77
2019-04-01T10:40:58.562Z,47.55
2019-04-01T10:43:25.940Z,49.72
2019-04-01T10:45:53.275Z,48.84
2019-04-01T10:48:20.697Z,50.87
2019-04-01T10:50:48.073Z,49.53
2019-04-01T10:53:15.381Z,50.82
2019-04-01T10:55:42.948Z,50.64
2019-04-01T10:58:11.338Z,50.71
2019-04-01T11:00:39.658Z,49.87
2019-04-01T11:03:07.088Z,47.62
2019-04-01T11:05:34.605Z,48.93
2019-04-01T11:08:02.182Z,50.89
2019-04-01T11:10:29.536Z,50.59
2019-04-01T11:12:56.935Z,50.26
2019-04-01T11:15:24.262Z,49.85
2019-04-01T11:17:52.538Z,50.02
2019-04-01T11:20:20.485Z,48.84
2019-04-01T11:22:47.859Z,49.76
2019-04-01T11:25:15.337Z,49.66
2019-04-01T11:27:42.976Z,49.88
2019-04-01T11:30:13.707Z,48.48
2019-04-01T11:32:40.938Z,48.12
2019-04-01T11:35:08.632Z,49.45
2019-04-01T11:37:36.450Z,46.41
2019-04-01T11:40:04.967Z,46.54
2019-04-01T11:42:32.397Z,48.17
2019-04-01T11:44:59.814Z,47.76
2019-04-01T11:47:27.205Z,48.08
2019-04-01T11:49:54.700Z,46.66
2019-04-01T11:52:22.151Z,47.37
2019-04-01T11:54:49.583Z,48.44
2019-04-01T11:57:16.951Z,46.48
2019-04-01T11:59:44.282Z,48.99
2019-04-01T12:02:11.722Z,48.16
2019-04-01T12:04:39.055Z,46.90
2019-04-01T12:07:06.707Z,48.04
2019-04-01T12:09:34.069Z,47.01
2019-04-01T12:12:01.395Z,45.74
2019-04-01T12:14:28.778Z,47.27
2019-04-01T12:16:56.135Z,46.60
2019-04-01T12:19:23.417Z,45.82
2019-04-01T12:21:50.789Z,45.84
2019-04-01T12:24:18.255Z,45.24
2019-04-01T12:26:47.033Z,45.05
2019-04-01T12:29:14.844Z,46.18
2019-04-01T12:31:42.375Z,46.22
2019-04-01T12:34:09.716Z,45.46
2019-04-01T12:36:37.059Z,47.01
2019-04-01T12:39:06.564Z,44.15
2019-04-01T12:41:33.934Z,45.76
2019-04-01T12:44:01.248Z,44.19
2019-04-01T12:46:28.814Z,45.15
2019-04-01T12:48:56.131Z,43.51
2019-04-01T12:51:23.685Z,44.47
2019-04-01T12:53:51.112Z,43.28
2019-04-01T12:56:18.459Z,44.83
2019-04-01T12:58:45.821Z,43.48
2019-04-01T13:01:15.425Z,44.65
2019-04-01T13:03:43.007Z,43.53
2019-04-01T13:06:10.401Z,42.95
2019-04-01T13:08:37.860Z,43.63
2019-04-01T13:11:05.240Z,42.54
2019-04-01T13:13:32.635Z,42.78
2019-04-01T13:16:00.125Z,40.72
2019-04-01T13:18:27.535Z,41.65
2019-04-01T13:20:55.006Z,41.39
2019-04-01T13:23:22.334Z,41.35
2019-04-01T13:25:49.696Z,42.51
2019-04-01T13:28:17.411Z,40.57
2019-04-01T13:30:44.685Z,43.37
2019-04-01T13:33:12.078Z,42.15
2019-04-01T13:35:39.885Z,40.90
2019-04-01T13:38:10.822Z,41.83
2019-04-01T13:40:36.770Z,43.66
2019-04-01T13:43:04.720Z,42.93
2019-04-01T13:45:32.417Z,40.82
2019-04-01T13:47:59.759Z,42.95
2019-04-01T13:50:27.171Z,42.09
2019-04-01T13:52:54.539Z,43.21
2019-04-01T13:55:21.930Z,42.82
2019-04-01T13:57:49.318Z,41.71
2019-04-01T14:00:16.817Z,42.30
2019-04-01T14:02:44.283Z,41.34
2019-04-01T14:05:11.757Z,42.26
2019-04-01T14:07:39.160Z,41.44
2019-04-01T14:10:06.893Z,42.76
2019-04-01T14:12:34.241Z,42.13
2019-04-01T14:15:01.608Z,42.55
2019-04-01T14:17:29.077Z,42.22
2019-04-01T14:19:56.809Z,40.93
2019-04-01T14:22:24.197Z,42.15
2019-04-01T14:24:51.595Z,43.46
2019-04-01T14:27:18.910Z,42.81
2019-04-01T14:29:46.432Z,42.40
2019-04-01T14:32:17.793Z,43.43
2019-04-01T14:34:43.564Z,43.38
2019-04-01T14:37:12.369Z,44.01
2019-04-01T14:39:39.913Z,42.78
2019-04-01T14:42:08.440Z,44.04
2019-04-01T14:44:36.734Z,45.25
2019-04-01T14:47:04.227Z,44.44
2019-04-01T14:49:32.963Z,43.97
2019-04-01T14:52:00.566Z,45.25
2019-04-01T14:54:28.171Z,45.16
2019-04-01T14:56:56.251Z,44.10
2019-04-01T14:59:24.411Z,45.67
2019-04-01T15:01:51.822Z,45.92
2019-04-01T15:04:19.506Z,45.90
2019-04-01T15:06:47.473Z,45.64
2019-04-01T15:09:17.367Z,45.87
2019-04-01T15:11:45.229Z,45.61
2019-04-01T15:14:12.654Z,45.13
2019-04-01T15:16:40.201Z,45.68
2019-04-01T15:19:07.863Z,45.82
2019-04-01T15:21:35.615Z,45.97
2019-04-01T15:24:03.321Z,46.59
2019-04-01T15:26:31.127Z,47.89
2019-04-01T15:29:00.282Z,47.94
2019-04-01T15:31:28.063Z,47.77
2019-04-01T15:33:56.601Z,47.74
2019-04-01T15:36:24.255Z,48.74
2019-04-01T15:38:53.007Z,47.76
2019-04-01T15:41:26.541Z,48.12
2019-04-01T15:43:53.089Z,48.34
2019-04-01T15:46:20.838Z,48.13
2019-04-01T15:48:48.734Z,49.07
2019-04-01T15:51:16.523Z,48.08
2019-04-01T15:53:44.081Z,47.99
2019-04-01T15:56:11.970Z,47.83
2019-04-01T15:58:39.568Z,48.98
2019-04-01T16:01:07.229Z,49.71
2019-04-01T16:03:34.904Z,49.11
2019-04-01T16:06:03.147Z,49.08
2019-04-01T16:08:31.080Z,49.92
2019-04-01T16:10:58.934Z,49.65
2019-04-01T16:13:26.643Z,49.69
2019-04-01T16:15:54.243Z,50.23
2019-04-01T16:18:21.899Z,49.78
2019-04-01T16:20:49.666Z,49.96
2019-04-01T16:23:18.990Z,50.21
2019-04-01T16:25:47.285Z,51.22
2019-04-01T16:28:14.844Z,50.22
2019-04-01T16:30:42.849Z,51.57
2019-04-01T16:33:10.449Z,52.35
2019-04-01T16:35:38.199Z,52.16
2019-04-01T16:38:06.090Z,52.91
2019-04-01T16:40:34.211Z,51.85
2019-04-01T16:43:01.836Z,52.42
2019-04-01T16:45:29.525Z,53.21
2019-04-01T16:47:57.142Z,53.50
2019-04-01T16:50:28.387Z,53.73
2019-04-01T16:52:54.684Z,54.13
2019-04-01T16:55:22.484Z,53.91
2019-04-01T16:57:50.336Z,54.54
2019-04-01T17:00:18.124Z,56.09
2019-04-01T17:02:46.017Z,55.65
2019-04-01T17:05:14.526Z,56.50
2019-04-01T17:07:42.216Z,56.31
2019-04-01T17:10:14.655Z,57.16
2019-04-01T17:12:42.375Z,56.17
2019-04-01T17:15:10.661Z,57.64
2019-04-01T17:17:38.317Z,57.02
2019-04-01T17:20:06.279Z,57.62
2019-04-01T17:22:34.135Z,57.85
2019-04-01T17:25:02.610Z,57.73
2019-04-01T17:27:30.376Z,59.08
2019-04-01T17:29:58.158Z,58.79
2019-04-01T17:32:26.146Z,60.89
2019-04-01T17:34:54.119Z,60.36
2019-04-01T17:37:21.821Z,60.11
2019-04-01T17:39:49.654Z,61.10
2019-04-01T17:42:17.547Z,60.17
2019-04-01T17:44:45.387Z,60.27
2019-04-01T17:47:13.329Z,59.27
2019-04-01T17:49:41.174Z,59.70
2019-04-01T17:52:09.075Z,59.40
2019-04-01T17:54:39.893Z,60.61
2019-04-01T17:57:06.546Z,60.40
2019-04-01T17:59:34.495Z,61.11
2019-04-01T18:02:02.402Z,61.16
2019-04-01T18:04:31.161Z,60.50
2019-04-01T18:06:59.455Z,60.81
2019-04-01T18:09:27.395Z,61.23
2019-04-01T18:11:55.510Z,61.03
2019-04-01T18:14:23.503Z,60.87
2019-04-01T18:16:51.251Z,60.73
2019-04-01T18:19:19.025Z,60.93
2019-04-01T18:21:48.000Z,61.13
2019-04-01T18:24:17.653Z,60.93
2019-04-01T18:26:46.079Z,61.53
2019-04-01T18:29:14.279Z,61.85
2019-04-01T18:31:42.345Z,61.12
2019-04-01T18:34:10.269Z,60.97
2019-04-01T18:36:40.277Z,61.52
2019-04-01T18:39:15.340Z,61.48
2019-04-01T18:41:43.619Z,61.38
2019-04-01T18:44:12.052Z,62.70
2019-04-01T18:46:42.827Z,61.85
2019-04-01T18:49:17.287Z,61.85
2019-04-01T18:51:45.629Z,61.99
2019-04-01T18:54:13.611Z,62.31
2019-04-01T18:56:41.444Z,62.27
2019-04-01T18:59:11.819Z,62.77
2019-04-01T19:01:39.533Z,63.29
2019-04-01T19:04:07.457Z,62.93
2019-04-01T19:06:36.019Z,63.65
2019-04-01T19:09:09.339Z,63.67
2019-04-01T19:11:38.397Z,63.57
2019-04-01T19:14:06.522Z,64.85
2019-04-01T19:16:34.399Z,64.88
2019-04-01T19:19:02.283Z,65.23
2019-04-01T19:21:31.245Z,65.49
2019-04-01T19:24:00.087Z,67.02
2019-04-01T19:26:28.508Z,66.92
2019-04-01T19:28:58.265Z,65.72
2019-04-01T19:31:26.695Z,66.89
2019-04-01T19:33:54.585Z,66.45
2019-04-01T19:36:22.588Z,66.99
2019-04-01T19:38:50.348Z,68.19
2019-04-01T19:41:18.310Z,66.94
2019-04-01T19:43:50.948Z,68.51
2019-04-01T19:46:18.129Z,68.78
2019-04-01T19:48:45.961Z,68.20
2019-04-01T19:51:13.900Z,68.76
2019-04-01T19:53:41.709Z,68.01
2019-04-01T19:56:09.560Z,68.08
2019-04-01T19:58:37.296Z,66.67
2019-04-01T20:01:05.298Z,67.27
2019-04-01T20:03:33.345Z,67.87
2019-04-01T20:06:01.236Z,67.29
2019-04-01T20:08:29.115Z,67.75
2019-04-01T20:10:57.541Z,68.19
2019-04-01T20:13:25.471Z,68.52
2019-04-01T20:15:59.888Z,66.90
2019-04-01T20:18:27.826Z,68.26
2019-04-01T20:20:55.834Z,67.93
2019-04-01T20:23:23.770Z,68.79
2019-04-01T20:25:53.345Z,68.94
2019-04-01T20:28:21.087Z,69.67
2019-04-01T20:30:48.998Z,68.81
2019-04-01T20:33:18.477Z,69.36
2019-04-01T20:35:46.772Z,69.90
2019-04-01T20:38:14.613Z,68.79
2019-04-01T20:40:42.556Z,70.85
2019-04-01T20:43:10.496Z,70.09
2019-04-01T20:45:39.609Z,70.02
2019-04-01T20:48:07.511Z,70.60
2019-04-01T20:50:35.464Z,69.81
2019-04-01T20:53:03.389Z,70.15
2019-04-01T20:55:31.164Z,70.20
2019-04-01T20:57:58.871Z,70.27
2019-04-01T21:00:26.641Z,69.93
2019-04-01T21:02:54.534Z,70.57
2019-04-01T21:05:22.165Z,70.69
2019-04-01T21:07:49.754Z,71.61
2019-04-01T21:10:17.321Z,70.48
2019-04-01T21:12:44.814Z,71.31
2019-04-01T21:15:12.381Z,71.00
2019-04-01T21:17:40.176Z,72.13
2019-04-01T21:20:07.640Z,71.33
2019-04-01T21:22:36.667Z,70.79
2019-04-01T21:25:04.807Z,70.92
2019-04-01T21:27:32.192Z,70.88
2019-04-01T21:29:59.568Z,71.31
2019-04-01T21:32:26.941Z,70.79
2019-04-01T21:34:54.364Z,70.54
2019-04-01T21:37:21.755Z,72.09
2019-04-01T21:39:49.092Z,71.91
2019-04-01T21:42:16.502Z,70.46
2019-04-01T21:44:43.850Z,72.33
2019-04-01T21:47:12.106Z,71.98
2019-04-01T21:49:40.291Z,72.03
2019-04-01T21:52:07.649Z,71.22
2019-04-01T21:54:35.030Z,71.41
2019-04-01T21:57:02.427Z,70.61
2019-04-01T21:59:29.792Z,71.43
2019-04-01T22:01:57.331Z,70.24
2019-04-01T22:04:24.686Z,71.05
2019-04-01T22:06:52.071Z,70.75
2019-04-01T22:09:19.431Z,71.43
2019-04-01T22:11:46.793Z,69.94
2019-04-01T22:14:14.231Z,71.99
2019-04-01T22:16:41.583Z,70.45
2019-04-01T22:19:09.051Z,71.08
2019-04-01T22:21:36.409Z,71.60
2019-04-01T22:24:04.274Z,72.01
2019-04-01T22:26:32.094Z,71.58
2019-04-01T22:28:59.451Z,73.26
2019-04-01T22:31:26.841Z,72.61
2019-04-01T22:33:54.230Z,73.12
2019-04-01T22:36:30.500Z,72.30
2019-04-01T22:38:50.851Z,72.85
2019-04-01T22:41:18.224Z,73.08
2019-04-01T22:43:45.564Z,73.19
2019-04-01T22:46:12.894Z,73.49
2019-04-01T22:48:40.232Z,72.68
2019-04-01T22:51:08.652Z,71.89
2019-04-01T22:53:36.610Z,72.68
2019-04-01T22:56:04.067Z,73.23
2019-04-01T22:58:31.433Z,73.05
2019-04-01T23:00:58.825Z,71.91
2019-04-01T23:03:26.171Z,71.22
2019-04-01T23:05:55.649Z,71.28
2019-04-01T23:08:22.828Z,73.28
2019-04-01T23:10:50.189Z,73.25
2019-04-01T23:13:17.582Z,74.06
2019-04-01T23:15:44.970Z,73.96
2019-04-01T23:18:12.382Z,73.80
2019-04-01T23:20:39.800Z,74.33
2019-04-01T23:23:07.155Z,73.97
2019-04-01T23:25:34.590Z,72.90
2019-04-01T23:28:01.971Z,71.98
2019-04-01T23:30:29.305Z,73.13
2019-04-01T23:32:56.672Z,73.64
2019-04-01T23:35:24.044Z,74.19
2019-04-01T23:37:51.411Z,74.19
2019-04-01T23:40:18.790Z,73.93
2019-04-01T23:42:46.155Z,74.84
2019-04-01T23:45:13.618Z,73.06
2019-04-01T23:47:41.013Z,72.67
2019-04-01T23:50:09.646Z,74.25
2019-04-01T23:52:37.445Z,73.05
2019-04-01T23:55:05.051Z,71.95
2019-04-01T23:57:32.408Z,73.01
2019-04-01T23:59:59.769Z,72.78
